Terminal Aerodrome Forecast
Issued by NWS Sioux Falls, SD

Home | Current Version | Previous Version | Graphics & Text | Print | Product List | Glossary On
Versions: 1 2 3 4 5 6 7 8 9 10 11 12 13 14 15 16 17 18 19 20
000
FTUS43 KFSD 281120
TAFSUX
TAF
KSUX 281120Z 2812/2912 01011KT P6SM -SHRA OVC010
     FM281500 36010KT P6SM OVC012
     FM282100 36009KT P6SM OVC025
     FM290200 02008KT P6SM OVC035
     FM290500 02007KT P6SM OVC015
     FM290800 04005KT P6SM OVC010=

USA.gov is the U.S. government's official web portal to all federal, state and local government web resources and services.